Time;durP1;ratioP1;P1;durP2;ratioP2;P2;SDS_P1;SDS_P2;PMS_P1;PMS_P2;Temp;Humidity;BMP_temperature;BMP_pressure;BME280_temperature;BME280_humidity;BME280_pressure;Samples;Min_cycle;Max_cycle;Signal;HPM_P1;HPM_P2
2023/04/19 00:01:29;;;;;;;3.50;2.37;;;;;;;;;;4988003;28;20220;-84
2023/04/19 00:03:55;;;;;;;2.87;2.30;;;;;;;;;;5004545;28;20215;-84
2023/04/19 00:06:21;;;;;;;3.20;2.50;;;;;;;;;;5002634;28;20276;-84
2023/04/19 00:08:46;;;;;;;2.40;2.20;;;;;;;;;;5004003;28;20219;-83
2023/04/19 00:11:15;;;;;;;2.10;1.90;;;;;;;;;;5003221;28;20269;-84
2023/04/19 00:13:42;;;;;;;2.63;2.00;;;;;;;;;;4969468;28;20537;-84
2023/04/19 00:16:10;;;;;;;3.87;2.40;;;;;;;;;;4978437;28;20209;-83
2023/04/19 00:18:38;;;;;;;2.80;2.20;;;;;;;;;;4985194;28;20273;-85
2023/04/19 00:21:04;;;;;;;3.07;2.40;;;;;;;;;;5010491;28;20216;-84
2023/04/19 00:23:29;;;;;;;2.73;2.20;;;;;;;;;;4975814;28;20213;-84
2023/04/19 00:25:55;;;;;;;3.27;2.40;;;;;;;;;;4995505;28;20209;-82
2023/04/19 00:28:20;;;;;;;4.53;2.40;;;;;;;;;;5034954;28;20219;-84
2023/04/19 00:30:51;;;;;;;4.17;2.40;;;;;;;;;;4974891;28;20220;-85
2023/04/19 00:33:17;;;;;;;2.67;2.43;;;;;;;;;;4998954;28;20312;-84
2023/04/19 00:35:42;;;;;;;4.37;2.23;;;;;;;;;;5001589;28;20220;-85
2023/04/19 00:38:12;;;;;;;3.03;2.27;;;;;;;;;;4993984;28;20213;-85
2023/04/19 00:40:42;;;;;;;3.77;2.20;;;;;;;;;;5000526;28;20268;-84
2023/04/19 00:43:08;;;;;;;2.93;2.30;;;;;;;;;;4996667;28;20237;-83
2023/04/19 00:45:35;;;;;;;2.10;1.90;;;;;;;;;;4993440;28;20235;-83
2023/04/19 00:48:06;;;;;;;3.83;2.33;;;;;;;;;;5000347;28;20272;-84
2023/04/19 00:50:35;;;;;;;2.67;2.10;;;;;;;;;;4979114;28;20233;-83
2023/04/19 00:53:06;;;;;;;3.77;2.40;;;;;;;;;;5014456;28;20231;-83
2023/04/19 00:55:31;;;;;;;5.10;2.20;;;;;;;;;;4964663;28;20276;-82
2023/04/19 00:57:59;;;;;;;4.13;2.23;;;;;;;;;;4981783;28;20225;-86
2023/04/19 01:00:25;;;;;;;4.70;2.10;;;;;;;;;;4967143;28;20237;-85
2023/04/19 01:02:50;;;;;;;3.30;2.13;;;;;;;;;;4984017;28;20217;-88
2023/04/19 01:05:20;;;;;;;2.77;2.33;;;;;;;;;;4989648;28;20444;-86
2023/04/19 01:07:50;;;;;;;2.50;2.30;;;;;;;;;;4977133;28;20228;-84
2023/04/19 01:10:18;;;;;;;3.97;2.50;;;;;;;;;;5004499;28;20217;-84
2023/04/19 01:12:46;;;;;;;2.60;1.93;;;;;;;;;;4986625;28;20263;-84
2023/04/19 01:15:18;;;;;;;3.67;2.60;;;;;;;;;;4963318;28;20221;-86
2023/04/19 01:17:44;;;;;;;3.10;2.10;;;;;;;;;;4945151;28;20213;-87
2023/04/19 01:20:10;;;;;;;3.57;2.40;;;;;;;;;;4964007;28;20236;-85
2023/04/19 01:22:41;;;;;;;2.60;2.30;;;;;;;;;;4948035;28;20229;-86
2023/04/19 01:25:07;;;;;;;3.07;2.40;;;;;;;;;;4992889;28;20227;-87
2023/04/19 01:27:33;;;;;;;3.63;2.33;;;;;;;;;;4962214;28;20220;-83
2023/04/19 01:29:59;;;;;;;3.10;2.33;;;;;;;;;;4969570;28;20225;-86
2023/04/19 01:32:27;;;;;;;2.90;2.13;;;;;;;;;;4982960;28;20219;-85
2023/04/19 01:34:54;;;;;;;5.77;2.53;;;;;;;;;;4979917;28;20214;-83
2023/04/19 01:37:20;;;;;;;2.80;2.07;;;;;;;;;;4961141;28;20213;-83
2023/04/19 01:39:48;;;;;;;2.80;2.50;;;;;;;;;;4972366;28;20241;-88
2023/04/19 01:42:17;;;;;;;4.20;2.40;;;;;;;;;;4979657;28;20228;-85
2023/04/19 01:44:42;;;;;;;3.53;2.60;;;;;;;;;;4978573;28;20221;-87
2023/04/19 01:47:08;;;;;;;3.20;2.70;;;;;;;;;;4974889;28;20208;-86
2023/04/19 01:49:34;;;;;;;3.93;2.53;;;;;;;;;;4977120;28;20598;-86
2023/04/19 01:52:00;;;;;;;3.20;2.67;;;;;;;;;;4978358;28;20250;-88
2023/04/19 01:54:25;;;;;;;4.73;2.80;;;;;;;;;;4976456;28;20592;-86
2023/04/19 01:56:51;;;;;;;4.03;2.80;;;;;;;;;;4986137;28;20832;-88
2023/04/19 01:59:17;;;;;;;5.77;2.80;;;;;;;;;;4979137;28;20251;-87
2023/04/19 02:01:44;;;;;;;3.00;2.70;;;;;;;;;;4958756;28;20254;-88
2023/04/19 02:04:10;;;;;;;4.40;2.97;;;;;;;;;;4979238;28;20217;-86
2023/04/19 02:06:39;;;;;;;5.67;3.10;;;;;;;;;;4965528;28;20243;-83
2023/04/19 02:09:09;;;;;;;4.87;3.03;;;;;;;;;;4997221;28;20693;-86
2023/04/19 02:11:37;;;;;;;3.20;2.83;;;;;;;;;;4993112;28;20293;-86
2023/04/19 02:14:02;;;;;;;4.27;3.13;;;;;;;;;;4977802;28;20225;-84
2023/04/19 02:16:28;;;;;;;3.87;2.90;;;;;;;;;;4979929;28;20240;-88
2023/04/19 02:18:56;;;;;;;3.47;2.80;;;;;;;;;;4982748;28;20225;-87
2023/04/19 02:21:21;;;;;;;4.60;3.40;;;;;;;;;;4994005;28;20212;-84
2023/04/19 02:23:47;;;;;;;3.33;2.90;;;;;;;;;;4961566;28;20232;-86
2023/04/19 02:26:13;;;;;;;4.37;3.27;;;;;;;;;;4969849;28;20220;-86
2023/04/19 02:28:41;;;;;;;4.97;3.00;;;;;;;;;;4975690;28;20273;-86
2023/04/19 02:31:10;;;;;;;3.40;3.10;;;;;;;;;;4980882;28;20235;-87
2023/04/19 02:33:35;;;;;;;3.53;3.10;;;;;;;;;;4958557;28;20255;-84
2023/04/19 02:36:03;;;;;;;3.83;3.20;;;;;;;;;;4962923;28;20228;-84
2023/04/19 02:38:29;;;;;;;3.00;2.70;;;;;;;;;;4996363;28;20224;-86
2023/04/19 02:40:57;;;;;;;3.20;2.80;;;;;;;;;;4978517;28;20221;-86
2023/04/19 02:43:24;;;;;;;7.03;3.43;;;;;;;;;;4963765;28;20278;-86
2023/04/19 02:45:50;;;;;;;4.97;3.13;;;;;;;;;;4977464;28;20224;-87
2023/04/19 02:48:16;;;;;;;3.70;3.23;;;;;;;;;;4990459;28;20234;-85
2023/04/19 02:50:41;;;;;;;6.50;3.43;;;;;;;;;;4967981;28;20230;-84
2023/04/19 02:53:07;;;;;;;4.67;3.40;;;;;;;;;;4964473;28;20225;-87
2023/04/19 02:55:33;;;;;;;5.17;3.13;;;;;;;;;;4982585;28;20223;-85
2023/04/19 02:58:05;;;;;;;6.00;3.20;;;;;;;;;;4965055;28;20211;-87
2023/04/19 03:00:37;;;;;;;5.23;3.17;;;;;;;;;;4971949;28;20304;-85
2023/04/19 03:03:11;;;;;;;4.10;3.00;;;;;;;;;;4981009;28;20816;-84
2023/04/19 03:05:37;;;;;;;6.80;3.70;;;;;;;;;;4980111;28;20224;-85
2023/04/19 03:08:02;;;;;;;4.37;3.47;;;;;;;;;;4979360;28;20224;-87
2023/04/19 03:10:28;;;;;;;4.80;3.23;;;;;;;;;;4978354;28;20231;-86
2023/04/19 03:12:55;;;;;;;3.30;3.00;;;;;;;;;;4960944;28;20641;-86
2023/04/19 03:15:24;;;;;;;5.03;3.40;;;;;;;;;;4958009;28;20240;-84
2023/04/19 03:17:49;;;;;;;4.60;3.50;;;;;;;;;;4995453;28;20217;-84
2023/04/19 03:20:20;;;;;;;5.50;3.17;;;;;;;;;;4963396;28;20228;-84
2023/04/19 03:22:48;;;;;;;3.70;3.30;;;;;;;;;;4995698;28;20221;-83
2023/04/19 03:25:16;;;;;;;3.27;2.90;;;;;;;;;;4976024;28;20659;-85
2023/04/19 03:27:46;;;;;;;3.77;3.27;;;;;;;;;;4979805;28;20213;-85
2023/04/19 03:30:15;;;;;;;4.97;3.40;;;;;;;;;;4977462;28;21158;-86
2023/04/19 03:32:42;;;;;;;4.57;3.33;;;;;;;;;;4960174;28;20308;-86
2023/04/19 03:35:10;;;;;;;4.00;3.47;;;;;;;;;;4989994;28;20220;-87
2023/04/19 03:37:36;;;;;;;3.67;3.10;;;;;;;;;;4979157;28;20212;-86
2023/04/19 03:40:03;;;;;;;5.13;3.37;;;;;;;;;;4995252;28;21463;-85
2023/04/19 03:42:34;;;;;;;5.67;3.30;;;;;;;;;;4996336;28;20213;-86
2023/04/19 03:45:09;;;;;;;4.63;2.80;;;;;;;;;;5000101;28;20213;-86
2023/04/19 03:47:41;;;;;;;4.17;2.97;;;;;;;;;;4971835;28;20213;-85
2023/04/19 03:50:07;;;;;;;5.73;3.33;;;;;;;;;;4994308;28;20224;-85
2023/04/19 03:52:39;;;;;;;4.00;3.00;;;;;;;;;;4976918;28;20224;-85
2023/04/19 03:55:05;;;;;;;3.57;3.10;;;;;;;;;;4989833;28;20263;-84
2023/04/19 03:57:37;;;;;;;3.90;3.10;;;;;;;;;;4962438;28;20674;-86
2023/04/19 04:00:11;;;;;;;4.10;3.23;;;;;;;;;;4977391;28;20237;-86
2023/04/19 04:02:45;;;;;;;4.13;3.40;;;;;;;;;;4951180;28;20355;-86
2023/04/19 04:05:16;;;;;;;5.33;3.13;;;;;;;;;;4968911;28;20951;-86
2023/04/19 04:07:41;;;;;;;3.80;3.13;;;;;;;;;;4960549;28;20247;-86
2023/04/19 04:10:07;;;;;;;5.00;3.20;;;;;;;;;;4986718;28;20225;-86
2023/04/19 04:12:39;;;;;;;3.90;3.37;;;;;;;;;;4949476;28;20764;-85
2023/04/19 04:15:12;;;;;;;4.20;3.07;;;;;;;;;;4971343;28;20228;-85
2023/04/19 04:17:46;;;;;;;3.47;3.17;;;;;;;;;;4981074;28;20209;-85
2023/04/19 04:20:12;;;;;;;6.43;3.27;;;;;;;;;;4978960;28;20308;-86
2023/04/19 04:22:41;;;;;;;5.90;3.20;;;;;;;;;;4963442;28;20222;-85
2023/04/19 04:25:11;;;;;;;3.50;3.20;;;;;;;;;;4980202;28;20776;-86
2023/04/19 04:28:01;;;;;;;3.73;3.23;;;;;;;;;;4956295;28;20248;-86
2023/04/19 04:30:30;;;;;;;4.80;3.50;;;;;;;;;;4965802;28;20228;-84
2023/04/19 04:32:57;;;;;;;3.60;3.20;;;;;;;;;;4970058;28;20216;-84
2023/04/19 04:35:24;;;;;;;4.47;2.93;;;;;;;;;;4966182;28;20698;-86
2023/04/19 04:37:55;;;;;;;4.10;2.90;;;;;;;;;;4995226;28;20225;-86
2023/04/19 04:40:24;;;;;;;5.27;3.77;;;;;;;;;;4987387;28;20233;-84
2023/04/19 04:42:51;;;;;;;6.27;3.50;;;;;;;;;;4983257;28;20280;-85
2023/04/19 04:45:17;;;;;;;3.80;3.47;;;;;;;;;;4964266;28;20298;-85
2023/04/19 04:47:46;;;;;;;3.57;3.27;;;;;;;;;;4987269;28;20248;-86
2023/04/19 04:50:16;;;;;;;4.13;3.20;;;;;;;;;;4963328;28;20239;-86
2023/04/19 04:52:42;;;;;;;3.13;2.77;;;;;;;;;;4965020;28;20223;-84
2023/04/19 04:55:11;;;;;;;3.57;3.27;;;;;;;;;;4963081;28;20318;-88
2023/04/19 04:57:41;;;;;;;3.23;2.90;;;;;;;;;;4995075;28;20308;-85
2023/04/19 05:00:16;;;;;;;3.60;3.00;;;;;;;;;;4992767;28;20224;-86
2023/04/19 05:02:52;;;;;;;4.23;3.13;;;;;;;;;;4965043;28;20224;-85
2023/04/19 05:05:17;;;;;;;3.90;3.17;;;;;;;;;;4960736;28;20225;-87
2023/04/19 05:07:43;;;;;;;4.13;3.03;;;;;;;;;;4978985;28;20220;-85
2023/04/19 05:10:09;;;;;;;3.73;2.90;;;;;;;;;;4976453;28;20231;-86
2023/04/19 05:12:42;;;;;;;3.03;2.73;;;;;;;;;;4950320;28;20261;-85
2023/04/19 05:15:13;;;;;;;3.67;3.00;;;;;;;;;;4963109;28;20255;-85
2023/04/19 05:17:46;;;;;;;3.07;2.77;;;;;;;;;;5011110;28;20224;-86
2023/04/19 05:20:17;;;;;;;3.03;2.73;;;;;;;;;;5002546;28;20216;-88
2023/04/19 05:22:45;;;;;;;5.23;3.13;;;;;;;;;;4961775;28;20677;-86
2023/04/19 05:25:10;;;;;;;4.53;2.57;;;;;;;;;;4962998;28;20219;-88
2023/04/19 05:27:38;;;;;;;2.93;2.60;;;;;;;;;;4969854;28;20201;-85
2023/04/19 05:30:09;;;;;;;3.33;2.77;;;;;;;;;;4975608;28;20224;-86
2023/04/19 05:32:42;;;;;;;3.97;2.50;;;;;;;;;;4978570;28;20247;-86
2023/04/19 05:35:12;;;;;;;5.67;2.57;;;;;;;;;;4977818;28;20300;-86
2023/04/19 05:37:40;;;;;;;4.03;2.80;;;;;;;;;;4963819;28;20232;-87
2023/04/19 05:40:08;;;;;;;3.60;2.63;;;;;;;;;;4978439;28;20723;-85
2023/04/19 05:42:34;;;;;;;3.33;2.43;;;;;;;;;;4996956;28;20225;-87
2023/04/19 05:45:00;;;;;;;6.67;2.90;;;;;;;;;;4962446;28;20270;-86
2023/04/19 05:47:29;;;;;;;2.63;2.43;;;;;;;;;;4997311;28;20224;-85
2023/04/19 05:50:16;;;;;;;2.87;2.30;;;;;;;;;;4960239;28;20223;-87
2023/04/19 05:52:46;;;;;;;2.30;2.13;;;;;;;;;;4988055;28;20224;-81
2023/04/19 05:55:12;;;;;;;3.17;2.10;;;;;;;;;;5006447;28;20228;-86
2023/04/19 05:57:42;;;;;;;5.10;2.20;;;;;;;;;;4972211;28;20224;-86
2023/04/19 06:00:13;;;;;;;4.10;1.67;;;;;;;;;;4989204;28;20217;-86
2023/04/19 06:02:49;;;;;;;2.20;1.80;;;;;;;;;;4993557;28;20231;-83
2023/04/19 06:05:17;;;;;;;2.07;1.70;;;;;;;;;;4959176;28;20221;-86
2023/04/19 06:07:46;;;;;;;1.70;1.53;;;;;;;;;;4990541;28;20339;-88
2023/04/19 06:10:14;;;;;;;1.90;1.40;;;;;;;;;;4984622;28;20230;-83
2023/04/19 06:12:42;;;;;;;3.93;1.30;;;;;;;;;;4998475;28;20358;-88
2023/04/19 06:15:11;;;;;;;2.17;1.50;;;;;;;;;;4984493;28;20224;-84
2023/04/19 06:17:39;;;;;;;2.30;1.40;;;;;;;;;;4993199;28;20228;-87
2023/04/19 06:20:07;;;;;;;1.40;1.30;;;;;;;;;;4945860;28;20224;-86
2023/04/19 06:22:32;;;;;;;1.53;1.30;;;;;;;;;;4982814;28;20275;-87
2023/04/19 06:24:58;;;;;;;3.73;1.30;;;;;;;;;;4983172;28;20669;-89
2023/04/19 06:27:23;;;;;;;2.13;1.43;;;;;;;;;;4982847;28;20220;-88
2023/04/19 06:29:56;;;;;;;1.77;1.40;;;;;;;;;;4984253;28;20221;-87
2023/04/19 06:32:22;;;;;;;2.03;1.40;;;;;;;;;;5006116;28;26866;-86
2023/04/19 06:34:47;;;;;;;1.70;1.30;;;;;;;;;;4974831;28;21720;-87
2023/04/19 06:37:13;;;;;;;2.33;1.40;;;;;;;;;;4968186;28;20235;-85
2023/04/19 06:39:38;;;;;;;1.43;1.17;;;;;;;;;;4997711;28;20592;-85
2023/04/19 06:42:11;;;;;;;2.60;1.40;;;;;;;;;;4983509;28;20299;-85
2023/04/19 06:44:37;;;;;;;3.20;1.23;;;;;;;;;;4997832;28;20301;-83
2023/04/19 06:47:05;;;;;;;1.20;1.10;;;;;;;;;;4998617;28;20221;-87
2023/04/19 06:49:31;;;;;;;1.70;1.20;;;;;;;;;;4996909;28;20268;-87
2023/04/19 06:51:58;;;;;;;1.37;1.10;;;;;;;;;;4998214;28;20213;-86
2023/04/19 06:54:26;;;;;;;1.37;1.27;;;;;;;;;;4978975;28;20227;-86
2023/04/19 06:56:52;;;;;;;1.37;1.20;;;;;;;;;;4965407;28;20267;-88
2023/04/19 06:59:20;;;;;;;2.73;1.20;;;;;;;;;;4978959;28;20217;-88
2023/04/19 07:01:45;;;;;;;1.77;1.43;;;;;;;;;;4967964;28;20282;-85
2023/04/19 07:04:11;;;;;;;1.40;1.30;;;;;;;;;;4997973;28;20873;-84
2023/04/19 07:06:37;;;;;;;1.10;1.00;;;;;;;;;;4988272;28;20283;-86
2023/04/19 07:09:05;;;;;;;1.40;1.13;;;;;;;;;;4991994;28;20298;-85
2023/04/19 07:11:34;;;;;;;2.23;1.13;;;;;;;;;;5007959;28;20229;-88
2023/04/19 07:14:00;;;;;;;2.83;1.10;;;;;;;;;;5005380;28;20240;-84
2023/04/19 07:16:29;;;;;;;1.90;1.60;;;;;;;;;;4989782;28;20598;-85
2023/04/19 07:18:55;;;;;;;2.43;1.53;;;;;;;;;;4979835;28;20264;-89
2023/04/19 07:21:20;;;;;;;3.27;1.20;;;;;;;;;;4965209;28;20233;-87
2023/04/19 07:23:46;;;;;;;1.63;1.30;;;;;;;;;;4998674;28;20224;-84
2023/04/19 07:26:13;;;;;;;1.30;1.10;;;;;;;;;;4982822;28;20222;-89
2023/04/19 07:28:41;;;;;;;1.50;1.13;;;;;;;;;;4966883;28;20220;-88
2023/04/19 07:31:14;;;;;;;2.00;1.30;;;;;;;;;;5000150;28;20231;-85
2023/04/19 07:33:42;;;;;;;2.03;1.40;;;;;;;;;;4984874;28;20232;-89
2023/04/19 07:36:08;;;;;;;2.03;1.20;;;;;;;;;;4987853;28;20256;-88
2023/04/19 07:38:34;;;;;;;1.53;1.40;;;;;;;;;;4986691;28;20959;-84
2023/04/19 07:41:04;;;;;;;2.93;1.30;;;;;;;;;;4989135;28;20224;-88
2023/04/19 07:43:32;;;;;;;2.33;1.40;;;;;;;;;;4994653;28;20251;-86
2023/04/19 07:45:58;;;;;;;1.50;1.20;;;;;;;;;;4964919;28;20221;-86
2023/04/19 07:48:25;;;;;;;1.87;1.40;;;;;;;;;;4964543;28;20880;-86
2023/04/19 07:50:51;;;;;;;1.70;1.30;;;;;;;;;;4964940;28;20231;-87
2023/04/19 07:53:19;;;;;;;1.10;1.10;;;;;;;;;;4963668;28;20544;-87
2023/04/19 07:55:47;;;;;;;1.33;1.23;;;;;;;;;;4980236;28;20224;-87
2023/04/19 07:58:15;;;;;;;2.00;1.30;;;;;;;;;;4979580;28;20244;-85
2023/04/19 08:00:43;;;;;;;1.67;1.40;;;;;;;;;;4965118;28;20217;-88
2023/04/19 08:03:08;;;;;;;1.43;1.20;;;;;;;;;;4964957;28;20228;-86
2023/04/19 08:05:36;;;;;;;1.30;1.20;;;;;;;;;;4963448;28;21013;-85
2023/04/19 08:08:04;;;;;;;1.77;1.33;;;;;;;;;;4965523;28;20217;-87
2023/04/19 08:10:32;;;;;;;1.70;1.33;;;;;;;;;;4967165;28;20237;-85
2023/04/19 08:13:00;;;;;;;1.20;1.10;;;;;;;;;;4980065;28;20724;-84
2023/04/19 08:15:28;;;;;;;2.10;1.30;;;;;;;;;;4994011;28;20619;-85
2023/04/19 08:17:56;;;;;;;1.37;1.27;;;;;;;;;;4965072;28;20216;-85
2023/04/19 08:20:22;;;;;;;1.43;1.27;;;;;;;;;;4972432;28;20228;-84
2023/04/19 08:22:49;;;;;;;3.83;1.20;;;;;;;;;;4987206;28;20220;-86
2023/04/19 08:25:15;;;;;;;2.30;1.40;;;;;;;;;;4976697;28;20272;-86
2023/04/19 08:27:41;;;;;;;1.43;1.10;;;;;;;;;;5009384;28;20302;-84
2023/04/19 08:30:07;;;;;;;1.23;1.13;;;;;;;;;;4976620;28;20232;-86
2023/04/19 08:32:33;;;;;;;1.30;1.20;;;;;;;;;;4947933;28;20224;-86
2023/04/19 08:35:00;;;;;;;1.87;1.30;;;;;;;;;;4996584;28;20263;-85
2023/04/19 08:37:28;;;;;;;1.70;1.30;;;;;;;;;;4997595;28;20307;-84
2023/04/19 08:39:56;;;;;;;1.27;1.17;;;;;;;;;;4965324;28;20217;-86
2023/04/19 08:42:24;;;;;;;1.57;1.47;;;;;;;;;;4996193;28;20247;-86
2023/04/19 08:44:53;;;;;;;1.33;1.10;;;;;;;;;;4994277;28;20234;-86
2023/04/19 08:47:19;;;;;;;1.50;1.30;;;;;;;;;;4974381;28;20225;-86
2023/04/19 08:49:45;;;;;;;2.93;1.50;;;;;;;;;;4977110;28;20221;-87
2023/04/19 08:52:14;;;;;;;1.60;1.40;;;;;;;;;;4996080;28;20209;-85
2023/04/19 08:54:40;;;;;;;3.10;1.37;;;;;;;;;;4948010;28;20239;-87
2023/04/19 08:57:07;;;;;;;1.80;1.20;;;;;;;;;;4964175;28;20208;-85
2023/04/19 08:59:36;;;;;;;2.80;1.20;;;;;;;;;;4979032;28;20247;-86
2023/04/19 09:02:01;;;;;;;1.33;1.20;;;;;;;;;;4986167;28;20272;-85
2023/04/19 09:04:27;;;;;;;1.23;1.13;;;;;;;;;;4987092;28;21078;-86
2023/04/19 09:06:55;;;;;;;3.20;1.33;;;;;;;;;;4961471;28;20244;-87
2023/04/19 09:09:25;;;;;;;1.97;1.20;;;;;;;;;;4963167;28;20216;-87
2023/04/19 09:11:53;;;;;;;1.63;1.50;;;;;;;;;;4981333;28;20247;-83
2023/04/19 09:14:19;;;;;;;1.40;1.30;;;;;;;;;;4980226;28;20685;-86
2023/04/19 09:16:50;;;;;;;3.63;1.80;;;;;;;;;;4973864;28;20217;-87
2023/04/19 09:19:18;;;;;;;1.53;1.43;;;;;;;;;;4986845;28;20208;-87
2023/04/19 09:21:43;;;;;;;2.90;1.50;;;;;;;;;;4965453;28;20579;-87
2023/04/19 09:24:09;;;;;;;3.97;1.50;;;;;;;;;;4994981;28;20235;-87
2023/04/19 09:26:57;;;;;;;1.77;1.30;;;;;;;;;;4980061;28;20231;-88
2023/04/19 09:29:25;;;;;;;3.20;1.40;;;;;;;;;;4964590;28;20221;-86
2023/04/19 09:31:59;;;;;;;3.30;1.40;;;;;;;;;;4973248;28;20204;-86
2023/04/19 09:34:29;;;;;;;1.77;1.27;;;;;;;;;;4998168;28;21181;-84
2023/04/19 09:36:55;;;;;;;1.87;1.33;;;;;;;;;;4979932;28;20223;-87
2023/04/19 09:39:35;;;;;;;3.27;1.53;;;;;;;;;;4977685;28;20217;-86
2023/04/19 09:42:00;;;;;;;2.83;1.40;;;;;;;;;;4968105;28;20229;-85
2023/04/19 09:44:27;;;;;;;1.97;1.30;;;;;;;;;;4965624;28;20259;-85
2023/04/19 09:46:54;;;;;;;1.47;1.30;;;;;;;;;;4979840;28;20217;-86
2023/04/19 09:49:26;;;;;;;1.90;1.40;;;;;;;;;;4963188;28;20217;-85
2023/04/19 09:51:52;;;;;;;3.47;1.33;;;;;;;;;;4979477;28;20224;-85
2023/04/19 09:54:21;;;;;;;2.77;1.40;;;;;;;;;;4975340;28;20213;-88
2023/04/19 09:56:47;;;;;;;2.83;1.50;;;;;;;;;;4963471;28;20636;-87
2023/04/19 09:59:13;;;;;;;2.17;1.37;;;;;;;;;;4961598;28;20233;-86
2023/04/19 10:01:38;;;;;;;1.90;1.30;;;;;;;;;;4979328;28;20302;-87
2023/04/19 10:04:07;;;;;;;1.77;1.27;;;;;;;;;;4992201;28;20247;-86
2023/04/19 10:06:35;;;;;;;5.30;1.27;;;;;;;;;;4964440;28;20239;-89
2023/04/19 10:09:03;;;;;;;1.87;1.40;;;;;;;;;;4978779;28;20217;-88
2023/04/19 10:11:41;;;;;;;1.60;1.50;;;;;;;;;;4973664;28;20291;-86
2023/04/19 10:14:12;;;;;;;1.53;1.30;;;;;;;;;;4964874;28;20216;-87
2023/04/19 10:16:38;;;;;;;1.73;1.50;;;;;;;;;;4964531;28;21875;-89
2023/04/19 10:19:06;;;;;;;3.63;1.50;;;;;;;;;;4945271;28;20274;-86
2023/04/19 10:21:34;;;;;;;1.60;1.37;;;;;;;;;;4961942;28;20220;-83
2023/04/19 10:24:00;;;;;;;2.00;1.50;;;;;;;;;;4962783;28;20316;-89
2023/04/19 10:26:25;;;;;;;2.50;1.40;;;;;;;;;;4959387;28;20213;-87
2023/04/19 10:28:55;;;;;;;2.37;1.60;;;;;;;;;;4962662;28;20221;-89
2023/04/19 10:31:22;;;;;;;2.40;1.40;;;;;;;;;;4965600;28;20227;-89
2023/04/19 10:33:48;;;;;;;1.73;1.40;;;;;;;;;;4973298;28;20225;-84
2023/04/19 10:36:16;;;;;;;2.23;1.50;;;;;;;;;;4987917;28;20574;-85
2023/04/19 10:38:51;;;;;;;1.37;1.20;;;;;;;;;;4989696;28;20205;-85
2023/04/19 10:41:21;;;;;;;2.27;1.40;;;;;;;;;;4984279;28;20283;-87
2023/04/19 10:43:56;;;;;;;2.53;1.30;;;;;;;;;;4965689;28;20266;-85
2023/04/19 10:46:27;;;;;;;3.17;1.40;;;;;;;;;;4977440;28;20272;-87
2023/04/19 10:48:59;;;;;;;2.80;1.60;;;;;;;;;;4994567;28;20221;-87
2023/04/19 10:51:28;;;;;;;3.33;1.30;;;;;;;;;;4967804;28;20286;-88
2023/04/19 10:54:08;;;;;;;2.30;1.50;;;;;;;;;;4975809;28;20216;-85
2023/04/19 10:56:33;;;;;;;3.63;1.40;;;;;;;;;;4961121;28;20278;-87
2023/04/19 10:59:10;;;;;;;2.00;1.50;;;;;;;;;;4976971;28;20225;-85
2023/04/19 11:02:03;;;;;;;1.97;1.30;;;;;;;;;;4977587;28;20758;-86
2023/04/19 11:04:29;;;;;;;3.17;1.60;;;;;;;;;;5008071;28;20227;-85
2023/04/19 11:07:03;;;;;;;2.67;1.60;;;;;;;;;;5007156;28;20213;-85
2023/04/19 11:09:43;;;;;;;1.83;1.70;;;;;;;;;;4995886;28;20228;-86
2023/04/19 11:12:11;;;;;;;3.13;1.70;;;;;;;;;;4996310;28;20216;-86
2023/04/19 11:14:46;;;;;;;2.67;1.90;;;;;;;;;;4998362;28;21767;-83
2023/04/19 11:17:19;;;;;;;2.67;1.60;;;;;;;;;;4980233;28;20287;-86
2023/04/19 11:19:57;;;;;;;2.70;1.80;;;;;;;;;;4995018;28;20221;-87
2023/04/19 11:22:28;;;;;;;3.23;1.90;;;;;;;;;;4980130;28;20236;-84
2023/04/19 11:24:54;;;;;;;2.33;1.57;;;;;;;;;;4981327;28;20274;-88
2023/04/19 11:27:20;;;;;;;1.70;1.60;;;;;;;;;;4993645;28;20208;-85
2023/04/19 11:29:45;;;;;;;3.87;1.80;;;;;;;;;;4964632;28;20231;-86
2023/04/19 11:32:13;;;;;;;2.07;1.87;;;;;;;;;;4995438;28;20267;-86
2023/04/19 11:34:44;;;;;;;2.70;1.90;;;;;;;;;;4949404;28;20217;-87
2023/04/19 11:37:10;;;;;;;2.20;2.00;;;;;;;;;;4972037;28;20227;-87
2023/04/19 11:39:46;;;;;;;2.30;1.83;;;;;;;;;;4996276;28;20241;-85
2023/04/19 11:42:21;;;;;;;3.57;1.87;;;;;;;;;;4980520;28;20244;-87
2023/04/19 11:44:52;;;;;;;3.50;1.80;;;;;;;;;;4985412;28;20759;-85
2023/04/19 11:47:23;;;;;;;2.53;2.00;;;;;;;;;;4965009;28;20271;-85
2023/04/19 11:49:49;;;;;;;2.57;2.10;;;;;;;;;;4979678;28;20224;-86
2023/04/19 11:52:26;;;;;;;5.37;2.00;;;;;;;;;;4978878;28;20212;-86
2023/04/19 11:54:52;;;;;;;4.10;1.90;;;;;;;;;;4979084;28;20270;-86
2023/04/19 11:57:35;;;;;;;2.27;1.80;;;;;;;;;;4999800;28;20862;-85
2023/04/19 12:00:10;;;;;;;1.60;1.50;;;;;;;;;;4986217;28;21073;-85
2023/04/19 12:02:42;;;;;;;2.93;1.90;;;;;;;;;;4968195;28;20220;-85
2023/04/19 12:05:13;;;;;;;2.63;2.20;;;;;;;;;;4948149;28;20757;-86
2023/04/19 12:08:08;;;;;;;3.20;1.80;;;;;;;;;;5014132;28;20287;-85
2023/04/19 12:10:34;;;;;;;2.60;1.97;;;;;;;;;;4971600;28;20220;-85
2023/04/19 12:13:00;;;;;;;2.97;2.10;;;;;;;;;;4964636;28;20227;-84
2023/04/19 12:15:43;;;;;;;4.17;2.10;;;;;;;;;;4995233;28;20213;-85
2023/04/19 12:18:08;;;;;;;2.40;2.20;;;;;;;;;;4995355;28;20665;-87
2023/04/19 12:20:37;;;;;;;2.67;2.17;;;;;;;;;;4947291;28;20228;-86
2023/04/19 12:23:03;;;;;;;7.50;2.50;;;;;;;;;;4984530;28;20229;-87
2023/04/19 12:25:32;;;;;;;5.30;2.77;;;;;;;;;;4966506;28;20243;-86
2023/04/19 12:27:57;;;;;;;3.40;2.50;;;;;;;;;;4950756;28;20267;-86
2023/04/19 12:30:23;;;;;;;4.50;2.23;;;;;;;;;;4949980;28;20791;-85
2023/04/19 12:32:50;;;;;;;3.00;2.10;;;;;;;;;;4946194;28;20263;-85
2023/04/19 12:35:17;;;;;;;2.90;2.40;;;;;;;;;;4982790;28;20213;-86
2023/04/19 12:37:42;;;;;;;4.40;2.43;;;;;;;;;;4998617;28;20708;-86
2023/04/19 12:40:13;;;;;;;3.33;2.40;;;;;;;;;;4981865;28;20229;-87
2023/04/19 12:42:38;;;;;;;4.27;2.40;;;;;;;;;;4981624;28;20546;-87
2023/04/19 12:45:07;;;;;;;3.83;2.30;;;;;;;;;;4972884;28;20221;-87
2023/04/19 12:47:34;;;;;;;4.13;2.67;;;;;;;;;;4985073;28;20682;-88
2023/04/19 12:50:03;;;;;;;4.22;2.20;;;;;;;;;;4986330;28;20329;-86
2023/04/19 12:52:35;;;;;;;2.20;2.00;;;;;;;;;;4974205;28;20235;-86
2023/04/19 12:55:03;;;;;;;3.90;2.30;;;;;;;;;;4994100;28;20300;-86
2023/04/19 12:57:34;;;;;;;4.63;2.33;;;;;;;;;;4978262;28;20231;-87
2023/04/19 13:00:03;;;;;;;2.97;2.20;;;;;;;;;;4961056;28;20232;-84
2023/04/19 13:02:28;;;;;;;3.63;2.33;;;;;;;;;;4995010;28;20235;-86
2023/04/19 13:04:54;;;;;;;4.80;2.60;;;;;;;;;;4981208;28;20218;-85
2023/04/19 13:07:21;;;;;;;2.37;2.17;;;;;;;;;;4991769;28;20216;-87
2023/04/19 13:09:49;;;;;;;2.73;2.30;;;;;;;;;;4991818;28;20260;-86
2023/04/19 13:12:15;;;;;;;3.87;2.33;;;;;;;;;;4977547;28;20276;-86
2023/04/19 13:14:40;;;;;;;2.97;2.10;;;;;;;;;;4977861;28;20247;-86
2023/04/19 13:17:08;;;;;;;3.30;2.10;;;;;;;;;;4990400;28;20312;-87
2023/04/19 13:19:36;;;;;;;3.40;2.00;;;;;;;;;;4978818;28;20286;-88
2023/04/19 13:22:06;;;;;;;2.13;1.90;;;;;;;;;;4981282;28;20225;-86
2023/04/19 13:24:32;;;;;;;2.63;2.17;;;;;;;;;;4978549;28;20222;-86
2023/04/19 13:26:57;;;;;;;2.50;2.30;;;;;;;;;;4964336;28;20316;-86
2023/04/19 13:29:27;;;;;;;3.07;2.10;;;;;;;;;;4984614;28;20220;-86
2023/04/19 13:31:53;;;;;;;3.33;2.20;;;;;;;;;;4972579;28;20216;-87
2023/04/19 13:34:19;;;;;;;3.93;2.33;;;;;;;;;;4952185;28;20220;-86
2023/04/19 13:36:44;;;;;;;2.43;2.20;;;;;;;;;;4982863;28;20223;-87
2023/04/19 13:39:10;;;;;;;3.60;2.30;;;;;;;;;;4986393;28;20235;-85
2023/04/19 13:41:38;;;;;;;2.87;1.87;;;;;;;;;;4985418;28;20229;-87
2023/04/19 13:44:05;;;;;;;2.47;2.10;;;;;;;;;;5003362;28;20224;-88
2023/04/19 13:46:32;;;;;;;4.23;2.10;;;;;;;;;;4955497;28;20217;-88
2023/04/19 13:48:57;;;;;;;2.37;2.10;;;;;;;;;;4986885;28;20223;-87
2023/04/19 13:51:25;;;;;;;3.73;2.40;;;;;;;;;;4991875;28;20224;-88
2023/04/19 13:53:56;;;;;;;2.43;1.90;;;;;;;;;;5006519;28;20331;-88
2023/04/19 13:56:26;;;;;;;3.07;2.17;;;;;;;;;;4978237;28;20221;-87
2023/04/19 13:58:51;;;;;;;3.50;2.10;;;;;;;;;;5005770;28;20232;-86
2023/04/19 14:01:17;;;;;;;2.30;2.10;;;;;;;;;;4989575;28;20252;-86
2023/04/19 14:03:45;;;;;;;4.00;2.23;;;;;;;;;;4988705;28;20232;-84
2023/04/19 14:06:13;;;;;;;3.03;2.10;;;;;;;;;;4969630;28;20251;-88
2023/04/19 14:08:38;;;;;;;2.47;2.03;;;;;;;;;;4978492;28;20232;-86
2023/04/19 14:11:06;;;;;;;4.57;2.20;;;;;;;;;;4955743;28;20232;-87
2023/04/19 14:13:34;;;;;;;2.67;2.00;;;;;;;;;;4961074;28;20221;-86
2023/04/19 14:15:59;;;;;;;2.53;2.27;;;;;;;;;;4975311;28;20295;-84
2023/04/19 14:18:25;;;;;;;3.37;2.17;;;;;;;;;;4977481;28;20635;-87
2023/04/19 14:20:50;;;;;;;2.63;2.30;;;;;;;;;;4982569;28;20217;-84
2023/04/19 14:23:16;;;;;;;4.50;2.40;;;;;;;;;;4980611;28;20233;-85
2023/04/19 14:25:44;;;;;;;6.00;2.10;;;;;;;;;;4967444;28;20287;-86
2023/04/19 14:28:11;;;;;;;4.93;2.33;;;;;;;;;;4977359;28;20712;-85
2023/04/19 14:30:37;;;;;;;3.13;2.17;;;;;;;;;;4984064;28;20685;-86
2023/04/19 14:33:05;;;;;;;3.37;2.23;;;;;;;;;;4966490;28;20221;-87
2023/04/19 14:35:31;;;;;;;5.23;2.40;;;;;;;;;;4969563;28;20213;-84
2023/04/19 14:37:56;;;;;;;3.17;2.20;;;;;;;;;;4970482;28;20228;-86
2023/04/19 14:40:25;;;;;;;4.40;2.23;;;;;;;;;;4995719;28;20274;-87
2023/04/19 14:42:52;;;;;;;2.63;2.07;;;;;;;;;;4983923;28;20244;-87
2023/04/19 14:45:19;;;;;;;4.53;2.73;;;;;;;;;;4966225;28;20220;-86
2023/04/19 14:47:44;;;;;;;4.90;2.50;;;;;;;;;;4992950;28;20256;-87
2023/04/19 14:50:15;;;;;;;4.63;2.23;;;;;;;;;;4967189;28;20311;-87